Time;durP1;ratioP1;P1;durP2;ratioP2;P2;SDS_P1;SDS_P2;PMS_P1;PMS_P2;Temp;Humidity;BMP_temperature;BMP_pressure;BME280_temperature;BME280_humidity;BME280_pressure;Samples;Min_cycle;Max_cycle;Signal;HPM_P1;HPM_P2
2022/09/26 00:01:42;;;;;;;11.75;5.47;;;;;;;15.08;62.27;100144.48;1742158;81;21213;-78
2022/09/26 00:04:43;;;;;;;11.25;5.20;;;;;;;14.83;62.69;100140.11;1759254;81;21213;-79
2022/09/26 00:07:50;;;;;;;7.20;4.65;;;;;;;15.05;62.28;100142.14;1759927;81;21245;-79
2022/09/26 00:11:03;;;;;;;7.92;4.72;;;;;;;14.57;63.35;100133.45;1758660;79;21198;-79
2022/09/26 00:14:13;;;;;;;8.50;4.40;;;;;;;14.62;63.74;100118.22;1758665;81;21222;-79
2022/09/26 00:17:20;;;;;;;6.75;4.12;;;;;;;14.57;63.88;100114.19;1758702;81;21903;-79
2022/09/26 00:20:26;;;;;;;17.48;4.67;;;;;;;14.66;63.63;100130.52;1760142;81;21773;-79
2022/09/26 00:23:33;;;;;;;13.22;4.67;;;;;;;14.66;63.42;100134.65;1758574;81;21189;-79
2022/09/26 00:26:41;;;;;;;8.65;4.50;;;;;;;14.56;63.91;100133.14;1760016;81;21198;-79
2022/09/26 00:29:47;;;;;;;8.63;4.12;;;;;;;14.66;63.62;100127.77;1760022;81;21189;-79
2022/09/26 00:32:54;;;;;;;12.82;4.70;;;;;;;14.55;63.89;100119.59;1759642;81;21209;-79
2022/09/26 00:36:02;;;;;;;6.10;4.45;;;;;;;14.51;64.08;100119.68;1759955;81;21178;-79
2022/09/26 00:39:08;;;;;;;14.50;4.72;;;;;;;14.55;63.95;100114.93;1759935;81;21224;-79
2022/09/26 00:42:17;;;;;;;9.68;4.47;;;;;;;14.48;64.12;100114.05;1759918;81;21178;-79
2022/09/26 00:45:23;;;;;;;6.58;4.08;;;;;;;14.61;63.97;100113.78;1760032;81;21237;-78
2022/09/26 00:48:29;;;;;;;20.68;5.97;;;;;;;14.96;63.05;100108.47;1759398;81;21867;-77
2022/09/26 00:51:34;;;;;;;7.97;5.30;;;;;;;14.98;63.07;100109.09;1758791;81;21280;-77
2022/09/26 00:54:40;;;;;;;11.93;4.78;;;;;;;15.13;62.55;100103.91;1758587;81;21237;-78
2022/09/26 00:58:03;;;;;;;9.43;5.00;;;;;;;14.94;62.90;100100.08;1724062;81;21201;-77
2022/09/26 01:01:11;;;;;;;9.68;4.70;;;;;;;15.31;62.44;100097.25;1741781;81;21224;-78
2022/09/26 01:04:17;;;;;;;7.28;3.70;;;;;;;14.91;63.66;100087.56;1758843;81;21209;-78
2022/09/26 01:07:26;;;;;;;12.05;5.22;;;;;;;14.93;63.56;100084.09;1776554;80;21227;-79
2022/09/26 01:10:31;;;;;;;12.70;5.37;;;;;;;14.76;63.85;100084.16;1779224;80;21184;-79
2022/09/26 01:13:39;;;;;;;7.55;5.00;;;;;;;14.75;64.18;100082.47;1777733;80;21221;-79
2022/09/26 01:16:51;;;;;;;8.80;4.78;;;;;;;14.74;64.07;100084.91;1779443;80;21208;-79
2022/09/26 01:20:20;;;;;;;9.25;4.70;;;;;;;14.70;64.23;100081.72;1779629;80;21247;-79
2022/09/26 01:23:49;;;;;;;11.93;4.90;;;;;;;14.67;64.13;100079.38;1776242;80;21176;-79
2022/09/26 01:27:12;;;;;;;6.60;4.03;;;;;;;14.61;64.01;100074.71;1779064;80;22463;-79
2022/09/26 01:30:28;;;;;;;6.23;4.33;;;;;;;14.68;63.90;100074.72;1779505;80;21184;-79
2022/09/26 01:34:07;;;;;;;5.03;3.80;;;;;;;14.58;64.02;100072.37;1778901;80;21491;-79
2022/09/26 01:37:38;;;;;;;10.90;3.70;;;;;;;14.52;64.26;100077.34;1779206;80;21228;-79
2022/09/26 01:41:01;;;;;;;4.90;3.90;;;;;;;14.22;66.08;100072.67;1779185;80;21747;-79
2022/09/26 01:44:39;;;;;;;8.80;4.95;;;;;;;14.14;67.12;100074.21;1778783;80;21178;-79
2022/09/26 01:48:05;;;;;;;7.42;4.47;;;;;;;14.22;67.30;100072.67;1779387;80;21200;-79
2022/09/26 01:51:35;;;;;;;8.33;4.50;;;;;;;14.39;67.10;100077.26;1778377;80;21802;-79
2022/09/26 01:54:52;;;;;;;8.20;4.70;;;;;;;14.22;67.85;100082.30;1778475;80;21208;-79
2022/09/26 01:58:09;;;;;;;6.65;4.45;;;;;;;14.19;68.25;100084.91;1777741;80;21755;-79
2022/09/26 02:01:17;;;;;;;10.68;4.62;;;;;;;14.45;67.66;100096.56;1779235;80;21181;-78
2022/09/26 02:04:33;;;;;;;8.00;4.95;;;;;;;14.48;67.46;100090.66;1779513;80;21235;-79
2022/09/26 02:07:49;;;;;;;6.45;4.28;;;;;;;14.57;67.02;100089.41;1776581;80;21234;-79
2022/09/26 02:11:14;;;;;;;10.15;4.17;;;;;;;14.56;67.13;100083.59;1779175;80;21240;-78
2022/09/26 02:14:30;;;;;;;8.18;4.00;;;;;;;14.58;67.15;100073.74;1777682;80;21214;-78
2022/09/26 02:17:40;;;;;;;8.08;5.00;;;;;;;14.63;66.94;100072.59;1778988;80;21185;-79
2022/09/26 02:20:52;;;;;;;9.88;5.25;;;;;;;14.47;67.27;100064.16;1777994;80;21196;-78
2022/09/26 02:23:59;;;;;;;9.30;4.53;;;;;;;14.26;68.00;100063.80;1779241;80;21178;-78
2022/09/26 02:27:06;;;;;;;10.75;4.58;;;;;;;14.33;68.01;100063.80;1779230;80;21165;-78
2022/09/26 02:30:13;;;;;;;12.05;5.42;;;;;;;14.43;67.77;100064.25;1779431;80;21244;-78
2022/09/26 02:33:18;;;;;;;12.85;5.15;;;;;;;14.29;68.32;100066.64;1779190;80;21196;-78
2022/09/26 02:36:25;;;;;;;11.03;5.72;;;;;;;14.23;68.69;100062.83;1777831;80;21784;-78
2022/09/26 02:39:32;;;;;;;12.35;4.72;;;;;;;14.51;67.87;100060.51;1779247;80;21192;-78
2022/09/26 02:42:45;;;;;;;9.15;4.60;;;;;;;14.31;68.05;100045.30;1779331;80;21193;-79
2022/09/26 02:46:05;;;;;;;7.10;4.30;;;;;;;14.17;68.73;100043.03;1778063;80;21161;-79
2022/09/26 02:49:28;;;;;;;14.35;4.60;;;;;;;14.04;68.95;100050.69;1777833;80;21219;-79
2022/09/26 02:52:59;;;;;;;11.83;4.22;;;;;;;14.08;69.05;100045.64;1779284;80;21474;-78
2022/09/26 02:56:34;;;;;;;10.45;4.22;;;;;;;14.20;69.04;100037.09;1764323;80;21256;-78
2022/09/26 03:00:02;;;;;;;6.75;5.08;;;;;;;14.21;69.41;100037.94;1779347;80;21449;-78
2022/09/26 03:03:15;;;;;;;11.45;5.08;;;;;;;14.37;69.51;100033.45;1779486;80;21196;-78
2022/09/26 03:06:23;;;;;;;8.13;4.92;;;;;;;14.44;69.75;100030.70;1778019;80;21772;-78
2022/09/26 03:09:29;;;;;;;11.33;5.62;;;;;;;14.66;69.39;100034.17;1757645;80;21201;-79
2022/09/26 03:12:34;;;;;;;5.90;5.00;;;;;;;14.70;69.46;100038.21;1758540;81;21493;-78
2022/09/26 03:15:44;;;;;;;7.90;4.65;;;;;;;14.66;69.64;100028.67;1742992;81;21773;-78
2022/09/26 03:18:56;;;;;;;;;;;;;;;14.83;69.73;100038.23;1761047;81;21205;-78
2022/09/26 03:22:01;;;;;;;;;;;;;;;15.01;69.25;100034.32;1738272;81;20663;-78
2022/09/26 03:25:07;;;;;;;9.93;5.17;;;;;;;15.05;69.22;100025.08;1759604;81;20629;-78
2022/09/26 03:28:16;;;;;;;8.00;4.78;;;;;;;15.16;69.08;100020.86;1758926;81;21304;-78
2022/09/26 03:31:23;;;;;;;7.47;4.17;;;;;;;15.28;68.61;100018.59;1759990;81;21165;-79
2022/09/26 03:34:26;;;;;;;15.35;5.20;;;;;;;15.26;68.64;100006.11;1760091;81;21233;-78
2022/09/26 03:37:19;;;;;;;10.75;4.10;;;;;;;15.26;68.90;100010.24;1760271;81;21233;-78
2022/09/26 03:40:25;;;;;;;6.28;4.65;;;;;;;15.39;68.39;100014.89;1760150;81;21236;-79
2022/09/26 03:43:52;;;;;;;6.90;4.20;;;;;;;15.40;68.51;100011.92;1672698;85;21385;-77
2022/09/26 03:47:22;;;;;;;11.28;4.80;;;;;;;15.47;68.88;100016.02;1877265;76;22244;-78
2022/09/26 03:50:27;;;;;;;10.53;5.12;;;;;;;15.57;68.53;100006.77;1777104;80;21216;-78
2022/09/26 03:53:34;;;;;;;7.40;4.35;;;;;;;15.68;68.42;100014.96;1781498;80;21751;-78
2022/09/26 03:56:40;;;;;;;8.40;5.37;;;;;;;15.73;68.21;100004.13;1780506;80;21176;-78
2022/09/26 03:59:46;;;;;;;8.68;5.80;;;;;;;15.71;68.58;100012.59;1781522;80;21181;-77
2022/09/26 04:02:55;;;;;;;8.50;5.30;;;;;;;15.75;68.66;100017.14;1779189;80;21185;-78
2022/09/26 04:06:02;;;;;;;10.50;5.80;;;;;;;15.73;68.84;100022.89;1781033;80;21806;-77
2022/09/26 04:09:10;;;;;;;12.75;5.83;;;;;;;15.76;69.09;100025.73;1781435;80;21180;-78
2022/09/26 04:12:16;;;;;;;13.95;6.22;;;;;;;15.92;68.86;100026.64;1781526;80;22481;-78
2022/09/26 04:15:22;;;;;;;11.95;6.30;;;;;;;15.98;68.86;100031.81;1781433;80;21182;-77
2022/09/26 04:18:30;;;;;;;11.12;5.92;;;;;;;15.97;69.03;100029.59;1781489;80;21189;-78
2022/09/26 04:21:36;;;;;;;12.20;6.50;;;;;;;16.04;69.02;100035.94;1781448;80;21751;-78
2022/09/26 04:24:43;;;;;;;8.63;6.37;;;;;;;16.19;68.82;100029.30;1781611;80;21185;-79
2022/09/26 04:27:49;;;;;;;10.93;6.87;;;;;;;16.23;69.00;100034.66;1781496;80;21165;-78
2022/09/26 04:30:55;;;;;;;12.20;6.53;;;;;;;16.20;69.13;100026.84;1781412;80;21825;-78
2022/09/26 04:34:03;;;;;;;18.23;7.62;;;;;;;16.20;69.52;100035.97;1781472;80;21157;-77
2022/09/26 04:37:09;;;;;;;16.23;7.20;;;;;;;16.22;69.78;100031.06;1780606;80;21342;-77
2022/09/26 04:40:16;;;;;;;11.12;6.47;;;;;;;16.23;70.05;100031.40;1781557;80;21192;-78
2022/09/26 04:43:25;;;;;;;9.25;6.10;;;;;;;16.38;69.95;100029.72;1780343;80;21188;-79
2022/09/26 04:46:34;;;;;;;13.35;7.10;;;;;;;16.38;70.24;100024.20;1772164;80;21261;-79
2022/09/26 04:49:41;;;;;;;13.15;7.35;;;;;;;16.56;69.97;100024.81;1738870;82;21246;-79
2022/09/26 04:52:48;;;;;;;10.68;6.62;;;;;;;16.65;69.87;100026.77;1738975;82;21442;-79
2022/09/26 04:55:55;;;;;;;10.70;6.83;;;;;;;16.57;70.29;100024.61;1738929;82;21250;-79
2022/09/26 04:59:03;;;;;;;9.40;6.42;;;;;;;16.56;70.40;100022.92;1739554;82;21198;-79
2022/09/26 05:02:11;;;;;;;14.23;7.12;;;;;;;16.66;70.47;100014.14;1739333;82;21222;-79
2022/09/26 05:05:17;;;;;;;12.05;7.28;;;;;;;16.69;70.38;100023.34;1738468;82;21191;-79
2022/09/26 05:08:24;;;;;;;12.15;7.80;;;;;;;16.76;70.51;100015.91;1737359;82;21194;-79
2022/09/26 05:11:31;;;;;;;18.87;6.92;;;;;;;16.75;70.94;100023.02;1735676;82;21187;-79
2022/09/26 05:14:34;;;;;;;13.65;7.90;;;;;;;17.07;70.43;100021.91;1729247;81;21261;-79
2022/09/26 05:17:26;;;;;;;11.85;6.45;;;;;;;17.14;70.59;100023.25;1711291;82;21218;-78
2022/09/26 05:20:31;;;;;;;12.98;7.67;;;;;;;17.23;71.01;100026.58;1696467;82;22402;-79
2022/09/26 05:27:02;;;;;;;18.90;8.10;;;;;;;17.42;71.17;100033.83;1721118;81;21308;-79
2022/09/26 05:30:11;;;;;;;10.03;7.17;;;;;;;17.59;71.05;100028.00;1726793;81;21178;-79
2022/09/26 05:33:16;;;;;;;14.40;8.18;;;;;;;17.80;70.86;100027.29;1725910;81;21766;-79
2022/09/26 05:36:23;;;;;;;20.00;10.80;;;;;;;17.74;71.27;100029.60;1705850;83;21203;-79
2022/09/26 05:42:54;;;;;;;18.25;6.92;;;;;;;18.30;70.25;100027.06;1670005;84;21205;-78
2022/09/26 05:46:04;;;;;;;14.85;6.33;;;;;;;18.24;70.96;100024.70;1706781;83;21307;-79
2022/09/26 05:49:13;;;;;;;9.43;6.17;;;;;;;18.27;70.93;100031.17;1702322;82;21208;-79
2022/09/26 05:52:21;;;;;;;13.38;5.42;;;;;;;18.54;70.45;100030.27;1716362;83;21511;-79
2022/09/26 05:55:27;;;;;;;7.92;5.35;;;;;;;18.70;70.17;100026.55;1733086;82;21220;-79
2022/09/26 05:58:48;;;;;;;9.13;5.85;;;;;;;18.76;69.98;100030.59;1726428;82;21255;-79
2022/09/26 06:02:12;;;;;;;14.33;5.90;;;;;;;18.87;69.84;100034.49;1721720;82;21205;-80
2022/09/26 06:05:34;;;;;;;6.67;5.05;;;;;;;18.93;69.80;100041.84;1728722;82;21743;-79
2022/09/26 06:08:45;;;;;;;11.85;5.85;;;;;;;19.19;69.19;100041.09;1730547;81;21212;-80
2022/09/26 06:11:56;;;;;;;9.80;5.58;;;;;;;19.50;69.13;100028.28;1718262;82;21181;-79
2022/09/26 06:15:02;;;;;;;8.48;5.50;;;;;;;19.82;68.61;100032.09;1728464;82;21740;-80
2022/09/26 06:18:17;;;;;;;8.75;5.25;;;;;;;20.07;67.90;100030.40;1727648;82;21802;-79
2022/09/26 06:21:24;;;;;;;10.20;4.87;;;;;;;20.30;67.37;100034.49;1735362;82;21346;-78
2022/09/26 06:24:34;;;;;;;8.40;4.87;;;;;;;20.53;66.49;100032.20;1730830;82;22491;-79
2022/09/26 06:27:41;;;;;;;7.92;4.25;;;;;;;20.60;65.87;100029.27;1741948;82;21504;-78
2022/09/26 06:30:49;;;;;;;13.90;5.78;;;;;;;20.77;65.32;100026.53;1728751;82;21210;-78
2022/09/26 06:34:11;;;;;;;10.60;5.40;;;;;;;20.78;65.63;100033.77;1713716;83;21226;-79
2022/09/26 06:37:34;;;;;;;9.53;5.08;;;;;;;20.98;64.66;100031.34;1727894;82;21740;-79
2022/09/26 06:40:39;;;;;;;8.83;4.65;;;;;;;20.87;64.97;100035.88;1722083;82;21374;-79
2022/09/26 06:43:46;;;;;;;10.98;5.00;;;;;;;21.09;64.41;100041.56;1731381;82;21222;-79
2022/09/26 06:47:12;;;;;;;9.00;4.92;;;;;;;21.13;64.13;100047.47;1734656;82;21197;-79
2022/09/26 06:50:31;;;;;;;12.75;4.80;;;;;;;21.22;63.82;100050.13;1736833;81;21217;-79
2022/09/26 06:53:37;;;;;;;9.73;4.67;;;;;;;21.32;63.83;100055.05;1733309;81;21192;-79
2022/09/26 06:56:45;;;;;;;13.03;4.92;;;;;;;21.46;63.65;100049.98;1792200;78;22485;-80
2022/09/26 06:59:51;;;;;;;7.05;4.25;;;;;;;21.37;63.80;100052.34;1792884;78;21220;-81
2022/09/26 07:03:00;;;;;;;14.47;5.00;;;;;;;21.34;64.45;100050.06;1734990;78;21224;-79
2022/09/26 07:06:08;;;;;;;8.30;4.12;;;;;;;21.59;63.83;100046.83;1699908;81;21173;-79
2022/09/26 07:09:14;;;;;;;8.95;3.92;;;;;;;21.90;62.57;100048.96;1792494;78;21192;-78
2022/09/26 07:12:23;;;;;;;11.75;4.85;;;;;;;21.43;64.04;100051.32;1758249;80;22106;-79
2022/09/26 07:15:32;;;;;;;7.15;3.92;;;;;;;21.35;65.01;100053.13;1801270;78;21175;-78
2022/09/26 07:18:48;;;;;;;29.25;13.05;;;;;;;21.82;64.27;100050.79;1710310;81;21764;-78
2022/09/26 07:21:50;;;;;;;19.48;8.95;;;;;;;22.12;62.74;100043.45;1789419;78;21125;-79
2022/09/26 07:24:53;;;;;;;15.88;7.75;;;;;;;22.22;62.37;100042.73;1797607;78;21184;-79
2022/09/26 07:27:39;;;;;;;11.90;5.42;;;;;;;22.48;61.53;100046.66;1799806;78;21212;-79
2022/09/26 07:30:31;;;;;;;8.20;4.72;;;;;;;22.54;60.86;100050.37;1797144;79;21244;-79
2022/09/26 07:33:43;;;;;;;11.20;4.45;;;;;;;22.46;60.64;100048.88;1800612;79;21149;-79
2022/09/26 07:36:48;;;;;;;12.80;5.40;;;;;;;22.71;59.60;100053.33;1798026;78;21757;-80
2022/09/26 07:39:57;;;;;;;8.75;5.03;;;;;;;22.82;59.79;100043.14;1795151;78;22570;-79
2022/09/26 07:43:09;;;;;;;10.35;4.92;;;;;;;22.90;60.15;100043.23;1767259;78;21322;-79
2022/09/26 07:53:28;;;;;;;17.23;4.62;;;;;;;23.15;58.66;100046.83;1790740;79;21244;-79
2022/09/26 07:56:54;;;;;;;10.82;4.72;;;;;;;23.20;58.70;100041.29;1798795;79;22109;-78
2022/09/26 08:00:20;;;;;;;16.32;4.62;;;;;;;23.12;58.55;100040.37;1793508;78;21200;-80
2022/09/26 08:03:15;;;;;;;9.10;3.87;;;;;;;23.29;58.16;100029.06;1798396;79;21239;-80
2022/09/26 08:06:22;;;;;;;8.78;3.75;;;;;;;23.40;57.60;100030.84;1784083;79;21149;-79
2022/09/26 08:09:29;;;;;;;6.83;3.22;;;;;;;23.37;58.30;100021.59;1780968;78;21196;-80
2022/09/26 08:12:35;;;;;;;5.35;3.35;;;;;;;23.78;57.30;100024.70;1753124;80;21867;-79
2022/09/26 08:15:45;;;;;;;6.10;3.15;;;;;;;23.76;56.06;100019.40;1729243;81;21303;-79
2022/09/26 08:18:52;;;;;;;6.25;3.58;;;;;;;23.92;55.66;100018.91;1721619;81;21208;-79
2022/09/26 08:21:58;;;;;;;7.17;3.33;;;;;;;23.85;54.88;100021.09;1726120;82;21415;-79
2022/09/26 08:25:06;;;;;;;9.90;4.08;;;;;;;23.57;55.02;100013.39;1738785;81;21185;-79
2022/09/26 08:28:28;;;;;;;7.25;4.15;;;;;;;23.50;55.07;100014.16;1729793;81;21201;-79
2022/09/26 08:31:37;;;;;;;8.43;3.50;;;;;;;23.46;55.56;100003.25;1761062;80;21307;-79
2022/09/26 08:34:42;;;;;;;9.58;3.87;;;;;;;23.39;55.61;100006.84;1747279;80;21189;-79
2022/09/26 08:37:57;;;;;;;7.53;3.20;;;;;;;23.60;54.56;99996.64;1752872;80;21224;-79
2022/09/26 08:41:31;;;;;;;5.33;3.00;;;;;;;23.54;54.93;99991.58;1739095;81;21207;-79
2022/09/26 08:45:00;;;;;;;5.65;3.20;;;;;;;23.79;54.59;99991.47;1718537;81;22222;-79
2022/09/26 08:48:25;;;;;;;6.65;2.67;;;;;;;23.89;53.61;99996.55;1738904;80;21252;-80
2022/09/26 08:51:51;;;;;;;8.20;2.77;;;;;;;24.17;52.51;99996.66;1748297;80;21165;-80
2022/09/26 08:54:56;;;;;;;4.72;2.58;;;;;;;24.37;52.13;99997.88;1743609;80;22304;-79
2022/09/26 08:58:22;;;;;;;5.72;2.62;;;;;;;24.53;52.43;99977.25;1730959;81;21201;-78
2022/09/26 09:01:38;;;;;;;5.87;3.40;;;;;;;24.67;51.22;99988.73;1732505;82;21200;-80
2022/09/26 09:04:57;;;;;;;8.15;3.62;;;;;;;24.84;49.92;99994.05;1729993;81;21234;-80
2022/09/26 09:08:06;;;;;;;8.10;2.87;;;;;;;24.82;50.39;99994.34;1739254;81;21169;-80
2022/09/26 09:12:07;;;;;;;7.15;2.98;;;;;;;25.01;49.60;99997.44;1839189;76;22196;-79
2022/09/26 09:15:52;;;;;;;14.43;3.62;;;;;;;24.87;48.64;99996.30;1813897;77;21232;-80
2022/09/26 09:19:22;;;;;;;7.50;2.52;;;;;;;24.92;47.75;99999.94;1793383;77;21696;-80
2022/09/26 09:23:05;;;;;;;9.78;2.92;;;;;;;24.82;46.56;99998.54;1700557;83;22168;-79
2022/09/26 09:26:19;;;;;;;8.03;3.15;;;;;;;24.88;46.01;100005.81;1714646;82;21228;-79
2022/09/26 09:29:45;;;;;;;7.12;2.87;;;;;;;24.70;46.46;99990.43;1822778;77;21503;-79
2022/09/26 09:33:14;;;;;;;3.67;2.70;;;;;;;24.42;47.28;99995.13;1672049;84;21618;-79
2022/09/26 09:36:37;;;;;;;6.22;2.80;;;;;;;24.54;47.35;99989.27;1821683;77;21139;-81
2022/09/26 09:39:46;;;;;;;6.97;3.42;;;;;;;24.58;48.07;99988.44;1819495;77;21180;-81
2022/09/26 09:43:13;;;;;;;7.75;3.30;;;;;;;24.59;47.45;99986.48;1822001;77;21184;-81
2022/09/26 09:46:34;;;;;;;7.17;2.65;;;;;;;24.75;47.38;99977.02;1826574;77;21234;-80
2022/09/26 09:49:44;;;;;;;4.15;2.50;;;;;;;24.82;46.74;99975.33;1818795;77;21429;-79
2022/09/26 09:53:05;;;;;;;;;;;;;;;24.68;46.41;99973.63;1795946;77;21188;-79
2022/09/26 09:56:38;;;;;;;7.85;2.87;;;;;;;24.86;46.82;99976.45;1798551;79;20216;-79
2022/09/26 10:00:00;;;;;;;4.62;2.80;;;;;;;24.91;46.48;99977.86;1798914;79;21215;-79
2022/09/26 10:03:33;;;;;;;3.85;2.27;;;;;;;25.04;46.62;99982.90;1781751;79;21192;-79
2022/09/26 10:06:40;;;;;;;4.83;2.52;;;;;;;25.02;46.38;99975.33;1790488;77;21164;-79
2022/09/26 10:09:50;;;;;;;2.92;2.15;;;;;;;24.96;46.25;99967.50;1739214;80;21242;-79
2022/09/26 10:13:13;;;;;;;18.67;2.62;;;;;;;25.13;43.69;99977.05;1723480;81;21585;-79
2022/09/26 10:16:25;;;;;;;6.22;2.37;;;;;;;25.07;43.69;99964.16;1722828;81;21241;-78
2022/09/26 10:19:43;;;;;;;5.28;2.12;;;;;;;25.07;44.13;99970.28;1727027;82;21268;-80
2022/09/26 10:22:50;;;;;;;4.00;2.35;;;;;;;24.87;44.37;99964.98;1751337;81;21635;-80
2022/09/26 10:25:58;;;;;;;4.58;2.30;;;;;;;25.11;44.59;99967.24;1762558;81;21244;-80
2022/09/26 10:29:06;;;;;;;7.37;2.33;;;;;;;25.04;45.15;99959.11;1752952;81;21303;-81
2022/09/26 10:32:12;;;;;;;5.08;2.12;;;;;;;25.30;44.72;99957.70;1751943;81;22490;-80
2022/09/26 10:35:48;;;;;;;5.83;2.20;;;;;;;25.31;44.50;99949.02;1743210;81;21248;-80
2022/09/26 10:42:29;;;;;;;4.03;1.82;;;;;;;25.15;42.27;99938.42;1727540;82;21253;-81
2022/09/26 10:45:35;;;;;;;4.92;1.70;;;;;;;25.28;42.39;99938.41;1733204;81;21219;-79
2022/09/26 10:49:06;;;;;;;2.52;1.85;;;;;;;25.49;41.62;99944.79;1688252;82;21197;-79
2022/09/26 10:52:28;;;;;;;3.20;1.90;;;;;;;25.51;41.26;99943.13;1725851;81;21219;-79
2022/09/26 10:55:48;;;;;;;4.87;2.30;;;;;;;25.78;41.58;99952.01;1723841;81;21763;-79
2022/09/26 10:58:56;;;;;;;6.53;1.90;;;;;;;25.84;41.35;99940.25;1721248;81;22355;-80
2022/09/26 11:02:03;;;;;;;4.72;1.92;;;;;;;25.87;41.63;99938.25;1725792;81;21197;-80
2022/09/26 11:08:41;;;;;;;4.03;2.02;;;;;;;25.88;40.76;99932.95;1715072;81;21206;-80
2022/09/26 11:11:54;;;;;;;4.40;2.65;;;;;;;25.73;40.59;99924.83;1741125;81;21241;-79
2022/09/26 11:15:08;;;;;;;5.00;1.65;;;;;;;25.95;40.53;99909.08;1801077;78;21166;-79
2022/09/26 11:18:13;;;;;;;3.30;1.40;;;;;;;25.84;39.15;99912.23;1786493;78;21186;-79
2022/09/26 11:21:46;;;;;;;5.67;1.80;;;;;;;25.72;38.66;99917.55;1788517;78;21188;-79
2022/09/26 11:25:19;;;;;;;4.72;1.90;;;;;;;25.64;38.62;99922.37;1778643;78;21251;-80
2022/09/26 11:28:43;;;;;;;4.90;1.70;;;;;;;25.44;38.48;99926.05;1815246;78;21434;-80
2022/09/26 11:31:50;;;;;;;2.42;1.50;;;;;;;25.25;38.84;99912.38;1757852;79;21184;-80
2022/09/26 11:35:01;;;;;;;2.70;1.80;;;;;;;25.29;38.62;99907.89;1740641;79;22105;-80
2022/09/26 11:38:43;;;;;;;5.10;1.77;;;;;;;25.21;39.31;99916.30;1780792;79;21179;-80
2022/09/26 11:42:04;;;;;;;5.90;1.90;;;;;;;25.21;39.40;99918.25;1790757;79;21707;-80
2022/09/26 11:45:18;;;;;;;7.72;2.22;;;;;;;25.15;38.27;99910.44;1765169;79;21182;-80
2022/09/26 11:49:03;;;;;;;7.50;1.65;;;;;;;24.92;38.06;99917.42;1784807;79;21822;-80
2022/09/26 11:52:49;;;;;;;4.83;2.00;;;;;;;24.90;38.08;99919.67;1779039;79;21196;-80
2022/09/26 11:56:32;;;;;;;5.72;1.67;;;;;;;24.73;38.13;99912.95;1779270;79;21210;-80
2022/09/26 12:00:08;;;;;;;4.65;1.50;;;;;;;24.61;38.52;99912.97;1781611;79;21238;-80
2022/09/26 12:03:42;;;;;;;3.47;1.60;;;;;;;24.54;38.12;99908.19;1774574;79;21195;-80
2022/09/26 12:07:24;;;;;;;7.83;1.75;;;;;;;24.34;38.25;99901.44;1772890;79;21301;-80
2022/09/26 12:10:59;;;;;;;6.60;1.42;;;;;;;24.33;38.58;99906.75;1724734;81;21517;-80
2022/09/26 12:14:26;;;;;;;1.45;1.35;;;;;;;24.17;38.33;99911.45;1739486;81;21208;-78
2022/09/26 12:18:12;;;;;;;3.45;1.60;;;;;;;24.00;38.59;99912.26;1736446;81;21168;-78
2022/09/26 12:21:38;;;;;;;5.12;1.60;;;;;;;23.98;38.76;99908.88;1744394;81;22309;-78
2022/09/26 12:25:06;;;;;;;3.00;1.80;;;;;;;23.80;39.21;99913.00;1743114;81;21207;-79
2022/09/26 12:28:44;;;;;;;2.47;1.70;;;;;;;23.70;39.19;99908.22;1741451;81;21149;-79
2022/09/26 12:31:59;;;;;;;2.77;1.65;;;;;;;23.69;38.41;99900.13;1744324;79;21220;-79
2022/09/26 12:35:47;;;;;;;5.97;1.90;;;;;;;23.84;38.25;99902.13;1783064;79;21268;-79
2022/09/26 12:39:23;;;;;;;6.85;1.80;;;;;;;23.83;37.99;99901.30;1750766;81;21202;-79
2022/09/26 12:43:12;;;;;;;2.90;1.40;;;;;;;23.79;38.39;99895.97;1727967;82;21788;-78
2022/09/26 12:46:42;;;;;;;10.82;1.70;;;;;;;23.75;37.82;99888.41;1775262;79;21205;-79
2022/09/26 12:50:23;;;;;;;2.55;1.50;;;;;;;23.76;37.06;99894.27;1786911;79;21224;-80
2022/09/26 12:53:58;;;;;;;4.17;1.67;;;;;;;23.85;36.67;99880.06;1763523;79;21308;-79
2022/09/26 12:57:23;;;;;;;2.98;1.60;;;;;;;23.85;37.04;99873.92;1792644;79;21796;-79
2022/09/26 13:00:27;;;;;;;5.25;1.50;;;;;;;23.85;36.85;99878.11;1798787;79;21189;-78
2022/09/26 13:03:57;;;;;;;5.40;1.40;;;;;;;23.87;37.40;99878.69;1789451;79;21184;-78
2022/09/26 13:07:18;;;;;;;;;;;;;;;23.96;37.01;99870.63;1767654;79;21198;-79
2022/09/26 13:10:47;;;;;;;;;;;;;;;24.02;37.02;99868.67;1758892;81;20606;-78
2022/09/26 13:14:11;;;;;;;2.33;1.50;;;;;;;24.08;38.04;99869.80;1754071;80;20232;-78
2022/09/26 13:17:22;;;;;;;7.00;1.60;;;;;;;24.14;38.51;99865.92;1764570;79;21209;-78
2022/09/26 13:20:42;;;;;;;6.22;1.50;;;;;;;24.15;38.81;99852.22;1762547;81;21241;-78
2022/09/26 13:23:56;;;;;;;4.93;1.80;;;;;;;24.14;39.12;99854.74;1766023;81;21551;-78
2022/09/26 13:27:08;;;;;;;3.52;1.80;;;;;;;24.21;39.25;99852.50;1758349;80;21198;-78
2022/09/26 13:30:34;;;;;;;3.17;1.55;;;;;;;24.17;39.42;99861.16;1762271;79;21582;-78
2022/09/26 13:33:44;;;;;;;3.05;1.52;;;;;;;24.36;39.29;99850.84;1768786;80;21272;-78
2022/09/26 13:36:49;;;;;;;2.62;1.60;;;;;;;24.29;39.82;99854.48;1768287;81;21192;-78
2022/09/26 13:40:01;;;;;;;4.37;2.00;;;;;;;24.12;40.16;99859.75;1768886;81;22330;-78
2022/09/26 13:43:34;;;;;;;4.60;1.42;;;;;;;24.16;40.12;99849.70;1768511;81;21209;-78
2022/09/26 13:47:00;;;;;;;5.08;2.10;;;;;;;24.07;40.45;99849.13;1767959;81;21751;-78
2022/09/26 13:50:23;;;;;;;3.25;1.90;;;;;;;23.92;40.48;99847.15;1774306;79;21236;-79
2022/09/26 13:53:43;;;;;;;10.20;1.52;;;;;;;23.87;40.53;99853.56;1768557;81;21509;-79
2022/09/26 13:56:54;;;;;;;3.65;1.77;;;;;;;23.93;40.74;99848.81;1795549;79;21185;-80
2022/09/26 14:00:00;;;;;;;3.90;1.95;;;;;;;24.02;40.78;99848.56;1802780;79;21748;-80
2022/09/26 14:03:23;;;;;;;14.73;3.52;;;;;;;23.55;41.76;99841.13;1799090;79;21721;-80
2022/09/26 14:06:35;;;;;;;4.30;3.20;;;;;;;23.53;41.46;99836.95;1795691;80;21165;-80
2022/09/26 14:09:50;;;;;;;6.53;2.87;;;;;;;23.45;41.51;99828.53;1796724;80;21189;-80
2022/09/26 14:13:29;;;;;;;3.22;2.40;;;;;;;23.43;41.78;99834.92;1781755;80;21779;-80
2022/09/26 14:16:39;;;;;;;7.28;1.70;;;;;;;23.53;41.99;99822.44;1741163;82;21609;-78
2022/09/26 14:19:52;;;;;;;4.37;2.20;;;;;;;23.43;42.00;99819.58;1741923;82;21197;-78
2022/09/26 14:23:02;;;;;;;6.87;1.70;;;;;;;23.52;42.02;99808.17;1796027;80;21271;-78
2022/09/26 14:26:13;;;;;;;3.52;1.87;;;;;;;23.47;41.98;99810.95;1796830;80;21256;-78
2022/09/26 14:29:38;;;;;;;14.73;1.90;;;;;;;23.57;41.85;99817.98;1796815;80;21236;-78
2022/09/26 14:32:39;;;;;;;3.27;1.55;;;;;;;23.46;42.05;99814.86;1796498;80;21181;-78
2022/09/26 14:35:45;;;;;;;6.30;2.05;;;;;;;23.35;42.27;99815.94;1798151;80;21161;-80
2022/09/26 14:38:55;;;;;;;5.37;2.00;;;;;;;23.38;42.41;99805.61;1796848;80;21574;-79
2022/09/26 14:41:55;;;;;;;3.10;1.53;;;;;;;23.42;42.32;99807.58;1797532;80;21247;-79
2022/09/26 14:45:04;;;;;;;4.10;2.00;;;;;;;23.26;42.49;99812.83;1796310;80;21181;-79
2022/09/26 14:48:34;;;;;;;10.20;2.30;;;;;;;23.16;43.32;99824.78;1797702;80;21806;-78
2022/09/26 14:51:42;;;;;;;4.70;2.30;;;;;;;23.08;44.13;99828.07;1796301;80;21752;-78
2022/09/26 14:54:42;;;;;;;6.50;2.60;;;;;;;23.02;44.27;99812.42;1797957;80;21221;-78
2022/09/26 14:57:38;;;;;;;5.25;2.60;;;;;;;22.92;44.66;99820.73;1797106;80;21791;-78
2022/09/26 15:00:46;;;;;;;6.42;3.10;;;;;;;22.69;45.40;99824.17;1797070;80;22542;-78
2022/09/26 15:03:40;;;;;;;6.22;2.20;;;;;;;22.92;44.96;99816.00;1796136;80;21201;-79
2022/09/26 15:06:27;;;;;;;4.60;2.37;;;;;;;22.92;44.83;99824.92;1796987;80;21197;-79
2022/09/26 15:09:38;;;;;;;5.47;2.77;;;;;;;22.56;45.35;99816.83;1779339;80;21205;-79
2022/09/26 15:12:43;;;;;;;6.60;2.83;;;;;;;22.33;45.95;99803.55;1797582;80;21736;-79
2022/09/26 15:15:57;;;;;;;7.05;2.37;;;;;;;22.21;46.17;99804.30;1797940;79;21513;-79
2022/09/26 15:19:18;;;;;;;11.88;2.37;;;;;;;21.85;47.02;99803.91;1801815;79;21220;-79
2022/09/26 15:22:26;;;;;;;6.42;2.33;;;;;;;21.62;47.60;99806.44;1803450;79;21236;-79
2022/09/26 15:25:38;;;;;;;5.58;2.10;;;;;;;21.48;47.99;99806.55;1802435;79;21184;-79
2022/09/26 15:28:44;;;;;;;9.30;2.30;;;;;;;21.36;48.30;99821.14;1803126;79;21292;-79